sensor_id;sensor_type;location;lat;lon;timestamp;P1;durP1;ratioP1;P2;durP2;ratioP2
23768;SDS011;12064;50.890;5.424;2023-08-24T00:08:48;5.90;;;3.80;;
23768;SDS011;12064;50.890;5.424;2023-08-24T00:17:38;5.90;;;3.63;;
23768;SDS011;12064;50.890;5.424;2023-08-24T00:26:29;6.57;;;3.40;;
23768;SDS011;12064;50.890;5.424;2023-08-24T00:35:20;4.88;;;3.70;;
23768;SDS011;12064;50.890;5.424;2023-08-24T00:44:11;5.53;;;3.47;;
23768;SDS011;12064;50.890;5.424;2023-08-24T00:53:02;5.15;;;3.38;;
23768;SDS011;12064;50.890;5.424;2023-08-24T01:01:53;5.85;;;3.60;;
23768;SDS011;12064;50.890;5.424;2023-08-24T01:10:52;4.75;;;3.30;;
23768;SDS011;12064;50.890;5.424;2023-08-24T01:19:51;5.70;;;3.70;;
23768;SDS011;12064;50.890;5.424;2023-08-24T01:28:45;6.22;;;3.47;;
23768;SDS011;12064;50.890;5.424;2023-08-24T01:37:36;4.57;;;3.38;;
23768;SDS011;12064;50.890;5.424;2023-08-24T01:46:28;5.30;;;3.70;;
23768;SDS011;12064;50.890;5.424;2023-08-24T01:55:19;6.75;;;3.70;;
23768;SDS011;12064;50.890;5.424;2023-08-24T02:04:10;7.88;;;3.80;;
23768;SDS011;12064;50.890;5.424;2023-08-24T02:13:01;7.60;;;4.00;;
23768;SDS011;12064;50.890;5.424;2023-08-24T02:21:51;6.03;;;3.80;;
23768;SDS011;12064;50.890;5.424;2023-08-24T02:30:42;6.00;;;3.67;;
23768;SDS011;12064;50.890;5.424;2023-08-24T02:39:33;6.03;;;4.28;;
23768;SDS011;12064;50.890;5.424;2023-08-24T02:48:25;6.95;;;3.92;;
23768;SDS011;12064;50.890;5.424;2023-08-24T02:57:15;6.32;;;3.60;;
23768;SDS011;12064;50.890;5.424;2023-08-24T03:06:07;7.25;;;4.20;;
23768;SDS011;12064;50.890;5.424;2023-08-24T03:14:58;8.85;;;4.10;;
23768;SDS011;12064;50.890;5.424;2023-08-24T03:23:48;6.13;;;4.43;;
23768;SDS011;12064;50.890;5.424;2023-08-24T03:32:40;9.05;;;4.70;;
23768;SDS011;12064;50.890;5.424;2023-08-24T03:41:31;7.85;;;5.13;;
23768;SDS011;12064;50.890;5.424;2023-08-24T03:50:22;11.32;;;4.68;;
23768;SDS011;12064;50.890;5.424;2023-08-24T03:59:12;7.57;;;4.60;;
23768;SDS011;12064;50.890;5.424;2023-08-24T04:08:03;7.27;;;4.70;;
23768;SDS011;12064;50.890;5.424;2023-08-24T04:16:54;8.63;;;4.35;;
23768;SDS011;12064;50.890;5.424;2023-08-24T04:25:46;8.43;;;4.82;;
23768;SDS011;12064;50.890;5.424;2023-08-24T04:34:36;8.13;;;4.72;;
23768;SDS011;12064;50.890;5.424;2023-08-24T04:43:30;6.65;;;4.80;;
23768;SDS011;12064;50.890;5.424;2023-08-24T04:52:21;11.18;;;6.93;;
23768;SDS011;12064;50.890;5.424;2023-08-24T05:01:12;14.65;;;8.40;;
23768;SDS011;12064;50.890;5.424;2023-08-24T05:10:03;14.27;;;9.40;;
23768;SDS011;12064;50.890;5.424;2023-08-24T05:18:54;13.85;;;8.85;;
23768;SDS011;12064;50.890;5.424;2023-08-24T05:27:45;15.32;;;8.27;;
23768;SDS011;12064;50.890;5.424;2023-08-24T05:36:35;12.27;;;7.60;;
23768;SDS011;12064;50.890;5.424;2023-08-24T05:45:26;12.43;;;7.13;;
23768;SDS011;12064;50.890;5.424;2023-08-24T05:54:17;12.53;;;8.30;;
23768;SDS011;12064;50.890;5.424;2023-08-24T06:03:11;11.02;;;7.57;;
23768;SDS011;12064;50.890;5.424;2023-08-24T06:12:02;13.80;;;9.10;;
23768;SDS011;12064;50.890;5.424;2023-08-24T06:20:53;15.23;;;8.52;;
23768;SDS011;12064;50.890;5.424;2023-08-24T06:29:43;9.90;;;7.28;;
23768;SDS011;12064;50.890;5.424;2023-08-24T06:38:34;12.10;;;7.45;;
23768;SDS011;12064;50.890;5.424;2023-08-24T06:47:25;14.07;;;7.68;;
23768;SDS011;12064;50.890;5.424;2023-08-24T06:56:15;9.85;;;7.35;;
23768;SDS011;12064;50.890;5.424;2023-08-24T07:05:07;9.13;;;6.13;;
23768;SDS011;12064;50.890;5.424;2023-08-24T07:13:58;11.05;;;5.88;;
23768;SDS011;12064;50.890;5.424;2023-08-24T07:22:52;9.38;;;5.25;;
23768;SDS011;12064;50.890;5.424;2023-08-24T07:31:43;6.95;;;4.65;;
23768;SDS011;12064;50.890;5.424;2023-08-24T07:40:34;8.47;;;4.97;;
23768;SDS011;12064;50.890;5.424;2023-08-24T07:49:25;6.77;;;4.40;;
23768;SDS011;12064;50.890;5.424;2023-08-24T07:58:15;7.20;;;4.53;;
23768;SDS011;12064;50.890;5.424;2023-08-24T08:07:06;6.40;;;4.20;;
23768;SDS011;12064;50.890;5.424;2023-08-24T08:16:02;7.93;;;4.00;;
23768;SDS011;12064;50.890;5.424;2023-08-24T08:24:57;5.82;;;4.03;;
23768;SDS011;12064;50.890;5.424;2023-08-24T08:33:48;6.20;;;4.55;;
23768;SDS011;12064;50.890;5.424;2023-08-24T08:42:38;5.40;;;3.80;;
23768;SDS011;12064;50.890;5.424;2023-08-24T08:51:30;6.40;;;4.03;;
23768;SDS011;12064;50.890;5.424;2023-08-24T09:00:21;5.65;;;3.70;;
23768;SDS011;12064;50.890;5.424;2023-08-24T09:09:12;5.43;;;3.95;;
23768;SDS011;12064;50.890;5.424;2023-08-24T09:18:03;4.78;;;4.18;;
23768;SDS011;12064;50.890;5.424;2023-08-24T09:26:54;5.55;;;3.67;;
23768;SDS011;12064;50.890;5.424;2023-08-24T09:35:45;4.50;;;3.77;;
23768;SDS011;12064;50.890;5.424;2023-08-24T09:44:45;5.40;;;3.80;;
23768;SDS011;12064;50.890;5.424;2023-08-24T09:53:37;4.28;;;3.75;;
23768;SDS011;12064;50.890;5.424;2023-08-24T10:02:32;4.00;;;3.25;;
23768;SDS011;12064;50.890;5.424;2023-08-24T10:11:26;4.53;;;3.72;;
23768;SDS011;12064;50.890;5.424;2023-08-24T10:20:21;4.28;;;3.50;;
23768;SDS011;12064;50.890;5.424;2023-08-24T10:29:13;4.60;;;3.47;;
23768;SDS011;12064;50.890;5.424;2023-08-24T10:38:05;3.85;;;3.45;;
23768;SDS011;12064;50.890;5.424;2023-08-24T10:47:15;3.95;;;3.45;;
23768;SDS011;12064;50.890;5.424;2023-08-24T10:56:11;3.95;;;3.25;;
23768;SDS011;12064;50.890;5.424;2023-08-24T11:05:24;4.95;;;3.40;;
23768;SDS011;12064;50.890;5.424;2023-08-24T11:14:22;5.22;;;4.40;;
23768;SDS011;12064;50.890;5.424;2023-08-24T11:23:16;6.35;;;3.88;;
23768;SDS011;12064;50.890;5.424;2023-08-24T11:32:07;4.97;;;4.10;;
23768;SDS011;12064;50.890;5.424;2023-08-24T11:40:58;8.27;;;4.70;;
23768;SDS011;12064;50.890;5.424;2023-08-24T11:49:49;6.30;;;4.37;;
23768;SDS011;12064;50.890;5.424;2023-08-24T11:58:39;6.38;;;4.32;;
23768;SDS011;12064;50.890;5.424;2023-08-24T12:07:30;5.55;;;3.90;;
23768;SDS011;12064;50.890;5.424;2023-08-24T12:16:21;6.10;;;4.20;;
23768;SDS011;12064;50.890;5.424;2023-08-24T12:25:15;5.00;;;3.45;;
23768;SDS011;12064;50.890;5.424;2023-08-24T12:34:07;4.72;;;3.47;;
23768;SDS011;12064;50.890;5.424;2023-08-24T12:43:01;5.65;;;3.45;;
23768;SDS011;12064;50.890;5.424;2023-08-24T12:51:51;5.20;;;3.47;;
23768;SDS011;12064;50.890;5.424;2023-08-24T13:00:42;6.80;;;3.90;;
23768;SDS011;12064;50.890;5.424;2023-08-24T13:09:32;4.10;;;2.90;;
23768;SDS011;12064;50.890;5.424;2023-08-24T13:18:23;4.33;;;3.43;;
23768;SDS011;12064;50.890;5.424;2023-08-24T13:27:14;7.07;;;3.20;;
23768;SDS011;12064;50.890;5.424;2023-08-24T13:36:04;6.57;;;3.27;;
23768;SDS011;12064;50.890;5.424;2023-08-24T13:44:58;4.80;;;3.20;;
23768;SDS011;12064;50.890;5.424;2023-08-24T13:53:48;4.37;;;2.90;;
23768;SDS011;12064;50.890;5.424;2023-08-24T14:02:39;4.50;;;2.73;;
23768;SDS011;12064;50.890;5.424;2023-08-24T14:11:30;4.60;;;2.33;;
23768;SDS011;12064;50.890;5.424;2023-08-24T14:20:21;3.03;;;2.22;;
23768;SDS011;12064;50.890;5.424;2023-08-24T14:29:12;4.20;;;2.40;;
23768;SDS011;12064;50.890;5.424;2023-08-24T14:38:04;4.35;;;2.10;;
23768;SDS011;12064;50.890;5.424;2023-08-24T14:46:54;3.17;;;1.88;;
23768;SDS011;12064;50.890;5.424;2023-08-24T14:55:45;3.37;;;1.70;;
23768;SDS011;12064;50.890;5.424;2023-08-24T15:04:36;2.70;;;1.60;;
23768;SDS011;12064;50.890;5.424;2023-08-24T15:13:26;1.70;;;1.20;;
23768;SDS011;12064;50.890;5.424;2023-08-24T15:22:18;2.33;;;1.48;;
23768;SDS011;12064;50.890;5.424;2023-08-24T15:31:09;3.95;;;1.40;;
23768;SDS011;12064;50.890;5.424;2023-08-24T15:40:00;3.47;;;1.63;;
23768;SDS011;12064;50.890;5.424;2023-08-24T15:48:53;2.05;;;1.20;;
23768;SDS011;12064;50.890;5.424;2023-08-24T15:57:45;2.45;;;1.20;;
23768;SDS011;12064;50.890;5.424;2023-08-24T16:06:39;2.97;;;1.30;;
23768;SDS011;12064;50.890;5.424;2023-08-24T16:15:30;1.45;;;1.00;;
23768;SDS011;12064;50.890;5.424;2023-08-24T16:24:21;1.67;;;1.17;;
23768;SDS011;12064;50.890;5.424;2023-08-24T16:33:12;2.35;;;1.23;;
23768;SDS011;12064;50.890;5.424;2023-08-24T16:42:02;1.77;;;1.15;;
23768;SDS011;12064;50.890;5.424;2023-08-24T16:50:53;1.77;;;1.15;;
23768;SDS011;12064;50.890;5.424;2023-08-24T16:59:44;2.70;;;1.38;;
23768;SDS011;12064;50.890;5.424;2023-08-24T17:08:35;3.77;;;1.30;;
23768;SDS011;12064;50.890;5.424;2023-08-24T17:17:25;3.63;;;1.42;;
23768;SDS011;12064;50.890;5.424;2023-08-24T17:26:16;3.38;;;1.25;;
23768;SDS011;12064;50.890;5.424;2023-08-24T17:35:07;2.73;;;1.10;;
23768;SDS011;12064;50.890;5.424;2023-08-24T17:43:58;4.25;;;1.30;;
23768;SDS011;12064;50.890;5.424;2023-08-24T17:52:48;3.13;;;1.30;;
23768;SDS011;12064;50.890;5.424;2023-08-24T18:01:41;3.85;;;1.15;;
23768;SDS011;12064;50.890;5.424;2023-08-24T18:10:32;4.13;;;1.10;;
23768;SDS011;12064;50.890;5.424;2023-08-24T18:19:22;2.80;;;1.23;;
23768;SDS011;12064;50.890;5.424;2023-08-24T18:28:13;3.35;;;1.10;;
23768;SDS011;12064;50.890;5.424;2023-08-24T18:37:04;3.77;;;1.70;;
23768;SDS011;12064;50.890;5.424;2023-08-24T18:45:58;3.05;;;1.70;;
23768;SDS011;12064;50.890;5.424;2023-08-24T18:54:53;3.80;;;1.80;;
23768;SDS011;12064;50.890;5.424;2023-08-24T19:03:43;3.22;;;1.77;;
23768;SDS011;12064;50.890;5.424;2023-08-24T19:12:34;3.33;;;1.80;;
23768;SDS011;12064;50.890;5.424;2023-08-24T19:21:24;5.20;;;2.80;;
23768;SDS011;12064;50.890;5.424;2023-08-24T19:30:18;7.07;;;3.05;;
23768;SDS011;12064;50.890;5.424;2023-08-24T19:39:08;6.27;;;2.10;;
23768;SDS011;12064;50.890;5.424;2023-08-24T19:48:00;3.72;;;1.60;;
23768;SDS011;12064;50.890;5.424;2023-08-24T19:56:51;2.58;;;1.60;;
23768;SDS011;12064;50.890;5.424;2023-08-24T20:05:41;3.73;;;1.70;;
23768;SDS011;12064;50.890;5.424;2023-08-24T20:14:32;2.70;;;1.23;;
23768;SDS011;12064;50.890;5.424;2023-08-24T20:23:23;4.87;;;1.60;;
23768;SDS011;12064;50.890;5.424;2023-08-24T20:32:13;3.93;;;1.93;;
23768;SDS011;12064;50.890;5.424;2023-08-24T20:41:04;6.38;;;2.50;;
23768;SDS011;12064;50.890;5.424;2023-08-24T20:49:54;5.17;;;2.10;;
23768;SDS011;12064;50.890;5.424;2023-08-24T20:58:47;2.58;;;1.70;;
23768;SDS011;12064;50.890;5.424;2023-08-24T21:07:39;3.65;;;1.80;;
23768;SDS011;12064;50.890;5.424;2023-08-24T21:16:30;3.35;;;1.80;;
23768;SDS011;12064;50.890;5.424;2023-08-24T21:25:21;3.65;;;1.88;;
23768;SDS011;12064;50.890;5.424;2023-08-24T21:34:12;2.28;;;1.80;;
23768;SDS011;12064;50.890;5.424;2023-08-24T21:43:02;2.40;;;1.90;;
23768;SDS011;12064;50.890;5.424;2023-08-24T21:51:55;3.97;;;1.77;;
23768;SDS011;12064;50.890;5.424;2023-08-24T22:00:46;1.60;;;1.50;;
23768;SDS011;12064;50.890;5.424;2023-08-24T22:09:37;2.13;;;1.48;;
23768;SDS011;12064;50.890;5.424;2023-08-24T22:18:30;2.38;;;1.48;;
23768;SDS011;12064;50.890;5.424;2023-08-24T22:27:20;3.43;;;1.40;;
23768;SDS011;12064;50.890;5.424;2023-08-24T22:36:12;2.43;;;1.60;;
23768;SDS011;12064;50.890;5.424;2023-08-24T22:45:03;1.83;;;1.60;;
23768;SDS011;12064;50.890;5.424;2023-08-24T22:53:55;1.83;;;1.70;;
23768;SDS011;12064;50.890;5.424;2023-08-24T23:02:45;2.17;;;1.38;;
23768;SDS011;12064;50.890;5.424;2023-08-24T23:11:36;2.70;;;1.33;;
23768;SDS011;12064;50.890;5.424;2023-08-24T23:20:27;2.13;;;1.50;;
23768;SDS011;12064;50.890;5.424;2023-08-24T23:29:17;2.78;;;1.50;;
23768;SDS011;12064;50.890;5.424;2023-08-24T23:38:08;1.67;;;1.40;;
23768;SDS011;12064;50.890;5.424;2023-08-24T23:46:59;2.90;;;1.60;;
23768;SDS011;12064;50.890;5.424;2023-08-24T23:55:50;1.70;;;1.40;;
